Time;durP1;ratioP1;P1;durP2;ratioP2;P2;SDS_P1;SDS_P2;PMS_P1;PMS_P2;Temp;Humidity;BMP_temperature;BMP_pressure;BME280_temperature;BME280_humidity;BME280_pressure;Samples;Min_cycle;Max_cycle;Signal;HPM_P1;HPM_P2
2023/12/16 00:01:50;;;;;;;;;;;18.40;59.50;;;;;;7393992;19;2722;-61
2023/12/16 00:04:16;;;;;;;;;;;18.40;59.60;;;;;;7392287;19;3815;-61
2023/12/16 00:06:41;;;;;;;;;;;18.40;59.70;;;;;;7396662;19;1395;-61
2023/12/16 00:09:07;;;;;;;;;;;18.40;59.60;;;;;;7394287;19;2643;-61
2023/12/16 00:11:32;;;;;;;;;;;18.40;59.70;;;;;;7397077;19;1467;-61
2023/12/16 00:13:57;;;;;;;;;;;18.30;59.70;;;;;;7395051;19;2108;-61
2023/12/16 00:16:26;;;;;;;;;;;18.30;59.80;;;;;;7393025;19;2951;-61
2023/12/16 00:18:51;;;;;;;;;;;18.30;59.90;;;;;;7393544;19;1523;-61
2023/12/16 00:21:17;;;;;;;;;;;18.30;59.80;;;;;;7399485;19;1605;-61
2023/12/16 00:23:42;;;;;;;;;;;18.30;60.00;;;;;;7401369;19;2957;-61
2023/12/16 00:26:08;;;;;;;;;;;18.20;60.00;;;;;;7401383;19;1529;-61
2023/12/16 00:28:33;;;;;;;;;;;18.20;60.20;;;;;;7404408;19;1718;-61
2023/12/16 00:30:58;;;;;;;;;;;18.20;60.00;;;;;;7399544;19;3261;-61
2023/12/16 00:33:24;;;;;;;;;;;18.20;59.90;;;;;;7403998;19;2060;-61
2023/12/16 00:35:49;;;;;;;;;;;18.20;59.70;;;;;;7396890;19;3985;-62
2023/12/16 00:38:15;;;;;;;;;;;18.20;59.60;;;;;;7398690;19;3389;-61
2023/12/16 00:40:40;;;;;;;;;;;18.20;59.70;;;;;;7399770;19;4637;-61
2023/12/16 00:43:05;;;;;;;;;;;18.10;59.80;;;;;;7399602;19;4765;-61
2023/12/16 00:45:31;;;;;;;;;;;18.10;59.90;;;;;;7396773;19;4971;-61
2023/12/16 00:47:56;;;;;;;;;;;18.10;61.40;;;;;;7393811;19;5253;-61
2023/12/16 00:50:22;;;;;;;;;;;18.10;60.00;;;;;;7397201;19;4884;-61
2023/12/16 00:52:47;;;;;;;;;;;18.10;60.10;;;;;;7399913;19;4688;-62
2023/12/16 00:55:13;;;;;;;;;;;18.10;60.20;;;;;;7401370;19;4019;-61
2023/12/16 00:57:39;;;;;;;;;;;18.10;60.30;;;;;;7399743;19;1955;-61
2023/12/16 01:00:07;;;;;;;;;;;18.10;60.20;;;;;;7397944;19;3336;-61
2023/12/16 01:02:32;;;;;;;;;;;18.00;60.30;;;;;;7403079;19;1718;-61
2023/12/16 01:04:57;;;;;;;;;;;18.00;60.40;;;;;;7400790;19;1435;-60
2023/12/16 01:07:23;;;;;;;;;;;18.00;60.40;;;;;;7396017;19;3114;-61
2023/12/16 01:09:51;;;;;;;;;;;18.00;60.40;;;;;;7399162;19;2105;-61
2023/12/16 01:12:17;;;;;;;;;;;18.00;60.60;;;;;;7401469;19;1311;-61
2023/12/16 01:14:43;;;;;;;;;;;18.00;60.40;;;;;;7394582;19;3244;-61
2023/12/16 01:17:08;;;;;;;;;;;18.00;60.40;;;;;;7395555;19;3123;-61
2023/12/16 01:19:33;;;;;;;;;;;17.90;60.30;;;;;;7396415;19;3861;-61
2023/12/16 01:21:59;;;;;;;;;;;17.90;60.20;;;;;;7396875;19;3387;-61
2023/12/16 01:24:24;;;;;;;;;;;17.90;60.20;;;;;;7399399;19;1619;-61
2023/12/16 01:26:50;;;;;;;;;;;17.90;60.30;;;;;;7401559;19;2085;-61
2023/12/16 01:29:15;;;;;;;;;;;17.90;60.30;;;;;;7398627;19;3366;-61
2023/12/16 01:31:40;;;;;;;;;;;17.90;61.00;;;;;;7401290;19;1557;-61
2023/12/16 01:34:06;;;;;;;;;;;17.90;60.30;;;;;;7399250;19;1845;-61
2023/12/16 01:36:32;;;;;;;;;;;17.90;60.30;;;;;;7396777;19;3032;-61
2023/12/16 01:38:57;;;;;;;;;;;17.80;59.90;;;;;;7399031;19;1584;-61
2023/12/16 01:41:23;;;;;;;;;;;17.90;60.10;;;;;;7401031;19;1789;-61
2023/12/16 01:43:48;;;;;;;;;;;17.80;59.90;;;;;;7399734;19;2986;-61
2023/12/16 01:46:14;;;;;;;;;;;17.80;59.90;;;;;;7399055;19;1630;-61
2023/12/16 01:48:40;;;;;;;;;;;17.80;60.00;;;;;;7399372;19;1911;-61
2023/12/16 01:51:05;;;;;;;;;;;17.80;59.90;;;;;;7397157;19;5612;-61
2023/12/16 01:53:31;;;;;;;;;;;17.70;59.70;;;;;;7400020;19;1861;-61
2023/12/16 01:55:56;;;;;;;;;;;17.70;59.70;;;;;;7397495;19;1558;-61
2023/12/16 01:58:22;;;;;;;;;;;17.80;59.70;;;;;;7397149;19;3668;-61
2023/12/16 02:00:48;;;;;;;;;;;17.70;59.50;;;;;;7397484;19;2677;-61
2023/12/16 02:03:14;;;;;;;;;;;17.70;59.50;;;;;;7400039;19;1628;-61
2023/12/16 02:05:39;;;;;;;;;;;17.70;59.50;;;;;;7397077;19;2846;-61
2023/12/16 02:08:05;;;;;;;;;;;17.70;59.40;;;;;;7399279;19;1640;-61
2023/12/16 02:10:30;;;;;;;;;;;17.70;59.50;;;;;;7398810;19;1522;-61
2023/12/16 02:12:56;;;;;;;;;;;17.70;59.60;;;;;;7397110;19;2998;-61
2023/12/16 02:15:21;;;;;;;;;;;17.70;59.40;;;;;;7400130;19;1560;-61
2023/12/16 02:17:47;;;;;;;;;;;17.80;59.30;;;;;;7400478;19;1316;-61
2023/12/16 02:20:12;;;;;;;;;;;17.90;59.00;;;;;;7391545;19;3820;-61
2023/12/16 02:22:37;;;;;;;;;;;18.00;58.70;;;;;;7393534;19;3616;-61
2023/12/16 02:25:03;;;;;;;;;;;18.20;58.50;;;;;;7399808;19;1564;-61
2023/12/16 02:27:28;;;;;;;;;;;18.40;58.00;;;;;;7397077;19;2653;-61
2023/12/16 02:29:54;;;;;;;;;;;18.60;57.50;;;;;;7399608;19;1660;-61
2023/12/16 02:32:19;;;;;;;;;;;18.80;56.90;;;;;;7399128;19;1554;-61
2023/12/16 02:34:45;;;;;;;;;;;19.30;55.90;;;;;;7395152;19;3488;-60
2023/12/16 02:37:12;;;;;;;;;;;19.80;54.90;;;;;;7398193;19;1873;-61
2023/12/16 02:39:37;;;;;;;;;;;20.20;53.90;;;;;;7398186;19;1816;-61
2023/12/16 02:42:03;;;;;;;;;;;20.60;53.10;;;;;;7396457;19;2745;-61
2023/12/16 02:44:28;;;;;;;;;;;20.80;52.50;;;;;;7397379;19;1509;-61
2023/12/16 02:46:54;;;;;;;;;;;21.00;52.10;;;;;;7398004;19;1727;-61
2023/12/16 02:49:19;;;;;;;;;;;21.10;51.60;;;;;;7396388;19;4227;-61
2023/12/16 02:51:45;;;;;;;;;;;21.10;51.60;;;;;;7396746;19;2991;-61
2023/12/16 02:54:10;;;;;;;;;;;21.00;52.30;;;;;;7396735;19;2030;-61
2023/12/16 02:56:36;;;;;;;;;;;20.90;51.90;;;;;;7395106;19;3006;-61
2023/12/16 02:59:01;;;;;;;;;;;20.70;52.20;;;;;;7396059;19;2464;-61
2023/12/16 03:01:26;;;;;;;;;;;20.60;52.50;;;;;;7396396;19;1763;-61
2023/12/16 03:03:52;;;;;;;;;;;20.40;52.80;;;;;;7389229;19;3253;-61
2023/12/16 03:06:17;;;;;;;;;;;20.20;53.10;;;;;;7397859;19;3589;-61
2023/12/16 03:08:43;;;;;;;;;;;20.10;53.50;;;;;;7399336;19;1464;-61
2023/12/16 03:11:08;;;;;;;;;;;19.90;53.80;;;;;;7393735;19;4322;-61
2023/12/16 03:13:34;;;;;;;;;;;19.70;54.10;;;;;;7396493;19;1983;-61
2023/12/16 03:15:59;;;;;;;;;;;19.70;54.40;;;;;;7393250;19;3003;-60
2023/12/16 03:18:25;;;;;;;;;;;19.50;54.60;;;;;;7396079;19;2774;-61
2023/12/16 03:20:50;;;;;;;;;;;19.40;54.60;;;;;;7396123;19;1520;-61
2023/12/16 03:23:16;;;;;;;;;;;19.30;54.80;;;;;;7396928;19;3981;-61
2023/12/16 03:25:44;;;;;;;;;;;19.20;54.90;;;;;;7396877;19;3482;-61
2023/12/16 03:28:10;;;;;;;;;;;19.20;55.10;;;;;;7397439;19;1682;-61
2023/12/16 03:30:37;;;;;;;;;;;19.10;55.20;;;;;;7393074;19;2978;-61
2023/12/16 03:33:03;;;;;;;;;;;19.00;55.20;;;;;;7396630;19;3629;-61
2023/12/16 03:35:28;;;;;;;;;;;18.90;55.40;;;;;;7396262;19;1494;-61
2023/12/16 03:37:53;;;;;;;;;;;18.90;55.50;;;;;;7395044;19;2962;-61
2023/12/16 03:40:19;;;;;;;;;;;18.80;55.60;;;;;;7396025;19;3107;-61
2023/12/16 03:42:44;;;;;;;;;;;18.80;55.70;;;;;;7397354;19;1593;-61
2023/12/16 03:45:10;;;;;;;;;;;18.80;55.70;;;;;;7393713;19;2506;-61
2023/12/16 03:47:35;;;;;;;;;;;18.80;55.70;;;;;;7396405;19;2824;-61
2023/12/16 03:50:01;;;;;;;;;;;18.80;55.70;;;;;;7396621;19;1734;-61
2023/12/16 03:52:26;;;;;;;;;;;18.90;55.70;;;;;;7394098;19;3511;-61
2023/12/16 03:54:52;;;;;;;;;;;18.90;55.70;;;;;;7391281;19;3228;-61
2023/12/16 03:57:17;;;;;;;;;;;18.80;55.70;;;;;;7394275;19;2770;-61
2023/12/16 03:59:42;;;;;;;;;;;18.80;55.70;;;;;;7391861;19;2545;-61
2023/12/16 04:02:08;;;;;;;;;;;18.90;55.60;;;;;;7396745;19;2733;-61
2023/12/16 04:04:33;;;;;;;;;;;19.00;56.00;;;;;;7397932;19;1743;-61
2023/12/16 04:07:00;;;;;;;;;;;19.00;55.20;;;;;;7393611;19;4134;-61
2023/12/16 04:09:26;;;;;;;;;;;19.10;55.00;;;;;;7395046;19;2823;-61
2023/12/16 04:11:52;;;;;;;;;;;19.20;54.90;;;;;;7393047;19;2640;-61
2023/12/16 04:14:17;;;;;;;;;;;19.10;54.80;;;;;;7392539;19;2784;-61
2023/12/16 04:16:42;;;;;;;;;;;19.20;54.80;;;;;;7394436;19;2861;-61
2023/12/16 04:19:08;;;;;;;;;;;19.20;54.50;;;;;;7396368;19;1562;-61
2023/12/16 04:21:33;;;;;;;;;;;19.20;54.40;;;;;;7394158;19;3051;-60
2023/12/16 04:23:59;;;;;;;;;;;19.20;54.40;;;;;;7395513;19;3427;-60
2023/12/16 04:26:24;;;;;;;;;;;19.20;54.40;;;;;;7395739;19;1224;-61
2023/12/16 04:28:50;;;;;;;;;;;19.20;54.40;;;;;;7393306;19;2863;-61
2023/12/16 04:31:17;;;;;;;;;;;19.20;54.50;;;;;;7395955;19;3079;-61
2023/12/16 04:33:42;;;;;;;;;;;19.20;54.40;;;;;;7395808;19;1860;-61
2023/12/16 04:36:14;;;;;;;;;;;19.00;54.60;;;;;;7391732;19;3033;-61
2023/12/16 04:38:40;;;;;;;;;;;19.00;54.80;;;;;;7390811;19;3513;-61
2023/12/16 04:41:05;;;;;;;;;;;19.00;54.90;;;;;;7395079;19;1415;-61
2023/12/16 04:43:30;;;;;;;;;;;19.00;54.90;;;;;;7392316;19;2643;-61
2023/12/16 04:45:56;;;;;;;;;;;19.00;54.90;;;;;;7395821;19;1580;-61
2023/12/16 04:48:21;;;;;;;;;;;19.00;55.00;;;;;;7396564;19;1465;-61
2023/12/16 04:50:47;;;;;;;;;;;18.90;54.90;;;;;;7391934;19;3067;-61
2023/12/16 04:53:12;;;;;;;;;;;18.90;55.00;;;;;;7395158;19;1857;-61
2023/12/16 04:55:41;;;;;;;;;;;18.90;55.00;;;;;;7391853;19;1366;-61
2023/12/16 04:58:06;;;;;;;;;;;18.90;54.90;;;;;;7393421;19;2663;-61
2023/12/16 05:00:32;;;;;;;;;;;18.90;54.80;;;;;;7389711;19;2170;-61
2023/12/16 05:02:58;;;;;;;;;;;18.90;54.80;;;;;;7393197;19;2946;-60
2023/12/16 05:05:23;;;;;;;;;;;18.90;54.90;;;;;;7390423;19;2990;-61
2023/12/16 05:07:48;;;;;;;;;;;18.90;54.80;;;;;;7400750;19;1837;-61
2023/12/16 05:10:14;;;;;;;;;;;18.90;54.80;;;;;;7399917;19;1513;-61
2023/12/16 05:12:39;;;;;;;;;;;18.90;54.60;;;;;;7396765;19;2981;-61
2023/12/16 05:15:05;;;;;;;;;;;18.90;54.50;;;;;;7401116;19;1630;-61
2023/12/16 05:17:31;;;;;;;;;;;18.90;54.50;;;;;;7402197;19;1855;-61
2023/12/16 05:19:56;;;;;;;;;;;18.90;54.30;;;;;;7397241;19;3512;-61
2023/12/16 05:22:21;;;;;;;;;;;19.00;54.20;;;;;;7401064;19;2499;-61
2023/12/16 05:24:48;;;;;;;;;;;19.00;54.10;;;;;;7399048;19;1533;-61
2023/12/16 05:27:13;;;;;;;;;;;19.10;53.90;;;;;;7399945;19;2671;-61
2023/12/16 05:29:39;;;;;;;;;;;19.10;53.90;;;;;;7399509;19;1828;-61
2023/12/16 05:32:04;;;;;;;;;;;19.10;53.60;;;;;;7402360;19;1957;-61
2023/12/16 05:34:30;;;;;;;;;;;19.20;53.60;;;;;;7394350;19;4161;-61
2023/12/16 05:36:55;;;;;;;;;;;19.10;53.80;;;;;;7400626;19;1754;-61
2023/12/16 05:39:21;;;;;;;;;;;19.00;53.80;;;;;;7400130;19;1706;-61
2023/12/16 05:41:46;;;;;;;;;;;19.00;54.10;;;;;;7399966;19;3108;-61
2023/12/16 05:44:11;;;;;;;;;;;19.00;54.10;;;;;;7401252;19;1444;-61
2023/12/16 05:46:37;;;;;;;;;;;19.00;54.10;;;;;;7399297;19;2631;-61
2023/12/16 05:49:03;;;;;;;;;;;19.00;54.10;;;;;;7398783;19;3998;-61
2023/12/16 05:51:28;;;;;;;;;;;19.00;54.10;;;;;;7398217;19;1868;-61
2023/12/16 05:53:54;;;;;;;;;;;18.90;54.00;;;;;;7398196;19;1862;-61
2023/12/16 05:56:19;;;;;;;;;;;18.90;54.00;;;;;;7397578;19;2745;-61
2023/12/16 05:58:45;;;;;;;;;;;18.90;54.00;;;;;;7395739;19;2079;-61
2023/12/16 06:01:11;;;;;;;;;;;18.90;54.70;;;;;;7396235;19;1537;-60
2023/12/16 06:03:37;;;;;;;;;;;18.90;54.00;;;;;;7397956;19;2845;-60
2023/12/16 06:06:02;;;;;;;;;;;18.80;54.00;;;;;;7399544;19;1451;-61
2023/12/16 06:08:28;;;;;;;;;;;18.80;53.90;;;;;;7398741;19;1604;-60
2023/12/16 06:10:53;;;;;;;;;;;18.90;53.90;;;;;;7394013;19;3004;-61
2023/12/16 06:13:19;;;;;;;;;;;18.90;53.80;;;;;;7400203;19;1842;-61
2023/12/16 06:15:44;;;;;;;;;;;18.90;53.60;;;;;;7398209;19;1516;-61
2023/12/16 06:18:10;;;;;;;;;;;18.90;53.40;;;;;;7395160;19;2962;-61
2023/12/16 06:20:35;;;;;;;;;;;18.90;53.40;;;;;;7400265;19;1566;-61
2023/12/16 06:23:00;;;;;;;;;;;19.00;53.50;;;;;;7400244;19;1417;-61
2023/12/16 06:25:26;;;;;;;;;;;19.00;53.50;;;;;;7396642;19;2639;-60
2023/12/16 06:27:51;;;;;;;;;;;19.00;53.40;;;;;;7400015;19;1370;-61
2023/12/16 06:30:17;;;;;;;;;;;19.00;53.40;;;;;;7400165;19;1849;-61
2023/12/16 06:32:42;;;;;;;;;;;18.90;53.40;;;;;;7395489;19;3562;-61
2023/12/16 06:35:08;;;;;;;;;;;18.90;53.40;;;;;;7399084;19;1615;-61
2023/12/16 06:37:33;;;;;;;;;;;18.90;53.50;;;;;;7398733;19;1709;-61
2023/12/16 06:39:58;;;;;;;;;;;18.80;53.40;;;;;;7396859;19;2991;-61
2023/12/16 06:42:24;;;;;;;;;;;18.80;53.40;;;;;;7399160;19;1443;-61
2023/12/16 06:44:49;;;;;;;;;;;18.80;53.40;;;;;;7399211;19;1564;-61
2023/12/16 06:47:15;;;;;;;;;;;18.80;53.50;;;;;;7397141;19;3535;-61
2023/12/16 06:49:40;;;;;;;;;;;18.80;53.30;;;;;;7398041;19;1542;-61
2023/12/16 06:52:05;;;;;;;;;;;18.80;53.20;;;;;;7399054;19;1452;-60
2023/12/16 06:54:31;;;;;;;;;;;18.80;53.30;;;;;;7391636;19;3055;-60
2023/12/16 06:56:56;;;;;;;;;;;18.80;53.40;;;;;;7399098;19;2172;-61
2023/12/16 06:59:22;;;;;;;;;;;18.80;53.20;;;;;;7388488;19;2853;-61
2023/12/16 07:01:47;;;;;;;;;;;18.80;53.30;;;;;;7392584;19;3080;-61
2023/12/16 07:04:13;;;;;;;;;;;18.80;53.20;;;;;;7396048;19;3443;-61
2023/12/16 07:06:38;;;;;;;;;;;18.90;53.20;;;;;;7398160;19;2402;-61
2023/12/16 07:09:04;;;;;;;;;;;18.90;53.10;;;;;;7396728;19;3116;-61
2023/12/16 07:11:29;;;;;;;;;;;18.90;53.00;;;;;;7395279;19;1790;-61
2023/12/16 07:13:55;;;;;;;;;;;19.00;52.90;;;;;;7398543;19;1846;-61
2023/12/16 07:16:20;;;;;;;;;;;19.00;52.90;;;;;;7393531;19;3094;-61
2023/12/16 07:18:46;;;;;;;;;;;19.00;52.90;;;;;;7398677;19;1514;-61
2023/12/16 07:21:11;;;;;;;;;;;19.00;52.70;;;;;;7398155;19;1628;-61
2023/12/16 07:23:36;;;;;;;;;;;19.00;52.80;;;;;;7395639;19;2909;-61
2023/12/16 07:26:02;;;;;;;;;;;19.00;52.60;;;;;;7396147;19;1574;-61
2023/12/16 07:28:27;;;;;;;;;;;19.00;52.70;;;;;;7398405;19;1569;-61
2023/12/16 07:30:53;;;;;;;;;;;19.00;52.70;;;;;;7393331;19;2872;-61
2023/12/16 07:33:18;;;;;;;;;;;18.90;52.90;;;;;;7396628;19;1846;-61
2023/12/16 07:35:44;;;;;;;;;;;18.90;52.90;;;;;;7392526;19;2647;-61
2023/12/16 07:38:09;;;;;;;;;;;18.90;52.90;;;;;;7398075;19;1370;-62
2023/12/16 07:40:35;;;;;;;;;;;18.90;53.00;;;;;;7395280;19;1534;-61
2023/12/16 07:43:01;;;;;;;;;;;18.80;52.80;;;;;;7397620;19;1563;-61
2023/12/16 07:45:26;;;;;;;;;;;18.80;52.80;;;;;;7395391;19;3131;-61
2023/12/16 07:47:52;;;;;;;;;;;18.90;52.80;;;;;;7397411;19;1576;-60
2023/12/16 07:50:19;;;;;;;;;;;18.80;52.80;;;;;;7395733;19;1905;-60
2023/12/16 07:52:46;;;;;;;;;;;18.90;52.70;;;;;;7388847;19;2856;-61
2023/12/16 07:55:12;;;;;;;;;;;18.90;52.70;;;;;;7396715;19;1539;-61
2023/12/16 07:57:37;;;;;;;;;;;18.90;52.70;;;;;;7395491;19;1596;-61
2023/12/16 08:00:03;;;;;;;;;;;19.00;52.70;;;;;;7389614;19;3095;-61
2023/12/16 08:02:30;;;;;;;;;;;19.00;52.60;;;;;;7395428;19;3028;-61
2023/12/16 08:04:56;;;;;;;;;;;19.00;52.60;;;;;;7393341;19;3437;-61
2023/12/16 08:07:22;;;;;;;;;;;19.00;52.50;;;;;;7396688;19;3404;-61
2023/12/16 08:09:47;;;;;;;;;;;18.90;52.50;;;;;;7395278;19;1489;-61
2023/12/16 08:12:12;;;;;;;;;;;19.00;52.60;;;;;;7395076;19;2917;-61
2023/12/16 08:14:38;;;;;;;;;;;18.90;52.60;;;;;;7394264;19;3018;-61
2023/12/16 08:17:03;;;;;;;;;;;18.90;52.70;;;;;;7396991;19;1548;-61
2023/12/16 08:19:29;;;;;;;;;;;18.80;52.50;;;;;;7393122;19;2934;-61
2023/12/16 08:21:54;;;;;;;;;;;18.80;52.60;;;;;;7394749;19;3080;-61
2023/12/16 08:24:20;;;;;;;;;;;18.80;52.50;;;;;;7393396;19;1810;-61
2023/12/16 08:26:49;;;;;;;;;;;18.80;52.40;;;;;;7393564;19;2949;-61
2023/12/16 08:29:14;;;;;;;;;;;18.80;52.40;;;;;;7393713;19;3623;-61
2023/12/16 08:31:40;;;;;;;;;;;18.80;52.30;;;;;;7396270;19;1942;-61
2023/12/16 08:34:05;;;;;;;;;;;18.80;52.30;;;;;;7389319;19;3608;-61
2023/12/16 08:36:31;;;;;;;;;;;18.80;52.30;;;;;;7390684;19;3465;-61
2023/12/16 08:38:56;;;;;;;;;;;18.80;52.20;;;;;;7396728;19;2374;-61
2023/12/16 08:41:21;;;;;;;;;;;18.90;52.20;;;;;;7394343;19;2824;-61
2023/12/16 08:43:47;;;;;;;;;;;18.90;52.30;;;;;;7402504;19;3088;-61
2023/12/16 08:46:12;;;;;;;;;;;18.90;52.10;;;;;;7400189;19;3302;-61
2023/12/16 08:48:39;;;;;;;;;;;18.90;52.10;;;;;;7397072;19;3044;-61
2023/12/16 08:51:05;;;;;;;;;;;18.90;52.10;;;;;;7400830;19;3238;-61
2023/12/16 08:53:30;;;;;;;;;;;18.90;52.10;;;;;;7402318;19;1842;-61
2023/12/16 08:55:56;;;;;;;;;;;18.80;52.30;;;;;;7398654;19;2721;-61
2023/12/16 08:58:21;;;;;;;;;;;18.80;52.40;;;;;;7402937;19;3033;-61
2023/12/16 09:00:48;;;;;;;;;;;18.80;52.50;;;;;;7399694;19;2649;-61
2023/12/16 09:03:14;;;;;;;;;;;18.80;52.50;;;;;;7396370;19;3043;-61
2023/12/16 09:05:40;;;;;;;;;;;18.80;52.30;;;;;;7401839;19;1570;-61
2023/12/16 09:08:05;;;;;;;;;;;18.80;52.30;;;;;;7403348;19;1536;-61
2023/12/16 09:10:31;;;;;;;;;;;18.80;52.30;;;;;;7398984;19;3569;-60
2023/12/16 09:12:56;;;;;;;;;;;18.80;52.20;;;;;;7402180;19;1842;-61
2023/12/16 09:15:22;;;;;;;;;;;18.90;52.30;;;;;;7400846;19;1556;-61
2023/12/16 09:17:47;;;;;;;;;;;19.30;52.10;;;;;;7399211;19;3226;-61
2023/12/16 09:20:13;;;;;;;;;;;19.80;50.80;;;;;;7401630;19;1563;-61
2023/12/16 09:22:38;;;;;;;;;;;20.30;50.10;;;;;;7393047;19;4775;-61
2023/12/16 09:25:04;;;;;;;;;;;20.50;49.30;;;;;;7395546;19;4874;-62
2023/12/16 09:27:30;;;;;;;;;;;20.70;49.40;;;;;;7396185;19;4799;-61
2023/12/16 09:29:55;;;;;;;;;;;20.90;49.10;;;;;;7398192;19;4664;-61
2023/12/16 09:32:21;;;;;;;;;;;21.10;48.70;;;;;;7400870;19;3002;-60
2023/12/16 09:34:46;;;;;;;;;;;21.20;48.50;;;;;;7397570;19;1850;-61
2023/12/16 09:37:12;;;;;;;;;;;21.50;48.00;;;;;;7402328;19;2914;-62
2023/12/16 09:39:38;;;;;;;;;;;21.70;47.60;;;;;;7400179;19;1624;-61
2023/12/16 09:42:04;;;;;;;;;;;21.80;47.40;;;;;;7399316;19;1756;-61
2023/12/16 09:44:30;;;;;;;;;;;22.00;47.40;;;;;;7398327;19;2172;-61
2023/12/16 09:46:59;;;;;;;;;;;22.00;47.40;;;;;;7397344;19;3206;-61
2023/12/16 09:49:25;;;;;;;;;;;21.90;47.60;;;;;;7400505;19;1776;-61
2023/12/16 09:51:51;;;;;;;;;;;21.80;47.70;;;;;;7402155;19;1522;-61
2023/12/16 09:54:16;;;;;;;;;;;21.70;47.90;;;;;;7393569;19;4139;-61
2023/12/16 09:56:44;;;;;;;;;;;21.80;48.20;;;;;;7398419;19;2890;-61
2023/12/16 09:59:09;;;;;;;;;;;21.80;48.10;;;;;;7395121;19;2710;-60
2023/12/16 10:01:35;;;;;;;;;;;21.90;48.00;;;;;;7392784;19;3221;-60
2023/12/16 10:04:00;;;;;;;;;;;22.00;48.00;;;;;;7399242;19;1971;-61
2023/12/16 10:06:26;;;;;;;;;;;22.00;47.80;;;;;;7396743;19;3246;-61
2023/12/16 10:08:52;;;;;;;;;;;22.10;47.80;;;;;;7397072;19;3144;-61
2023/12/16 10:11:17;;;;;;;;;;;22.00;47.80;;;;;;7398473;19;1506;-61
2023/12/16 10:13:56;;;;;;;;;;;21.90;48.00;;;;;;7399592;19;1842;-61
2023/12/16 10:16:24;;;;;;;;;;;21.90;48.10;;;;;;7398029;19;3741;-61
2023/12/16 10:18:50;;;;;;;;;;;22.00;48.00;;;;;;7398836;19;1616;-61
2023/12/16 10:21:19;;;;;;;;;;;22.10;47.90;;;;;;7397771;19;1926;-61
2023/12/16 10:23:45;;;;;;;;;;;22.20;47.90;;;;;;7396811;19;3448;-61
2023/12/16 10:26:10;;;;;;;;;;;22.30;47.80;;;;;;7399770;19;1971;-61
2023/12/16 10:28:38;;;;;;;;;;;22.20;47.90;;;;;;7398256;19;1817;-60
2023/12/16 10:31:03;;;;;;;;;;;22.10;48.00;;;;;;7394242;19;3739;-61
2023/12/16 10:33:29;;;;;;;;;;;22.00;48.30;;;;;;7396997;19;2950;-61
2023/12/16 10:35:54;;;;;;;;;;;22.00;48.20;;;;;;7397594;19;1295;-60
2023/12/16 10:38:20;;;;;;;;;;;21.90;48.10;;;;;;7398356;19;3058;-61
2023/12/16 10:40:45;;;;;;;;;;;22.00;48.20;;;;;;7397731;19;1712;-60
2023/12/16 10:43:10;;;;;;;;;;;22.00;48.20;;;;;;7399453;19;2067;-61
2023/12/16 10:45:36;;;;;;;;;;;22.00;48.20;;;;;;7396945;19;3948;-61
2023/12/16 10:48:02;;;;;;;;;;;22.10;48.30;;;;;;7394647;19;3614;-61
2023/12/16 10:50:27;;;;;;;;;;;22.20;48.00;;;;;;7395367;19;3283;-61
2023/12/16 10:52:53;;;;;;;;;;;22.30;48.00;;;;;;7395128;19;3241;-60
2023/12/16 10:55:22;;;;;;;;;;;22.50;47.80;;;;;;7395014;19;2974;-61
2023/12/16 10:57:48;;;;;;;;;;;22.50;47.70;;;;;;7397751;19;1722;-61
2023/12/16 11:00:17;;;;;;;;;;;22.50;47.70;;;;;;7388700;19;3803;-61
2023/12/16 11:02:45;;;;;;;;;;;22.50;47.50;;;;;;7397319;19;2930;-60
2023/12/16 11:05:14;;;;;;;;;;;22.60;47.60;;;;;;7394536;19;4788;-61
2023/12/16 11:07:41;;;;;;;;;;;22.60;47.60;;;;;;7393808;19;2956;-61
2023/12/16 11:10:07;;;;;;;;;;;22.70;47.50;;;;;;7395487;19;1821;-61
2023/12/16 11:12:34;;;;;;;;;;;22.70;47.40;;;;;;7398000;19;1775;-61
2023/12/16 11:15:00;;;;;;;;;;;22.70;47.40;;;;;;7394133;19;3962;-61
2023/12/16 11:17:49;;;;;;;;;;;22.70;47.50;;;;;;7397321;19;1608;-61
2023/12/16 11:20:18;;;;;;;;;;;22.60;47.50;;;;;;7394847;19;3007;-60
2023/12/16 11:22:43;;;;;;;;;;;22.60;47.70;;;;;;7396352;19;2764;-61
2023/12/16 11:25:15;;;;;;;;;;;22.60;47.80;;;;;;7398071;19;1889;-61
2023/12/16 11:27:40;;;;;;;;;;;22.50;47.90;;;;;;7393826;19;3030;-61
2023/12/16 11:30:06;;;;;;;;;;;22.50;48.10;;;;;;7395980;19;2481;-60
2023/12/16 11:32:32;;;;;;;;;;;22.60;48.00;;;;;;7395938;19;2914;-61
2023/12/16 11:34:57;;;;;;;;;;;22.60;47.80;;;;;;7391940;19;3985;-61
2023/12/16 11:37:35;;;;;;;;;;;22.70;47.70;;;;;;7398136;19;1473;-60
2023/12/16 11:40:04;;;;;;;;;;;22.70;47.70;;;;;;7395621;19;1770;-60
2023/12/16 11:42:46;;;;;;;;;;;22.70;47.70;;;;;;7394518;19;2986;-61
2023/12/16 11:45:30;;;;;;;;;;;22.80;47.70;;;;;;7396896;19;1793;-60
2023/12/16 11:47:55;;;;;;;;;;;22.70;47.70;;;;;;7396200;19;1666;-61
2023/12/16 11:50:21;;;;;;;;;;;22.80;47.80;;;;;;7395199;19;4087;-61
2023/12/16 11:52:46;;;;;;;;;;;22.80;47.60;;;;;;7397377;19;1242;-61
2023/12/16 11:55:12;;;;;;;;;;;22.70;47.80;;;;;;7391395;19;1865;-61
2023/12/16 11:57:37;;;;;;;;;;;22.80;47.70;;;;;;7387754;19;3866;-61
2023/12/16 12:00:04;;;;;;;;;;;22.70;47.60;;;;;;7391053;19;3348;-62
2023/12/16 12:02:29;;;;;;;;;;;22.80;48.00;;;;;;7395802;19;2830;-62
2023/12/16 12:04:55;;;;;;;;;;;22.70;48.30;;;;;;7378470;19;5110;-61
2023/12/16 12:07:20;;;;;;;;;;;22.70;48.30;;;;;;7390536;19;6424;-63
2023/12/16 12:09:46;;;;;;;;;;;22.80;48.40;;;;;;7391494;19;2981;-62
2023/12/16 12:12:11;;;;;;;;;;;22.70;48.50;;;;;;7396980;19;1610;-61
2023/12/16 12:14:45;;;;;;;;;;;22.70;48.50;;;;;;7391038;19;4922;-60
2023/12/16 12:17:10;;;;;;;;;;;22.80;48.30;;;;;;7379642;19;4822;-58
2023/12/16 12:19:36;;;;;;;;;;;22.70;48.40;;;;;;7388565;19;4919;-61
2023/12/16 12:22:01;;;;;;;;;;;22.70;48.60;;;;;;7385810;19;6035;-62
2023/12/16 12:24:27;;;;;;;;;;;22.70;48.40;;;;;;7386744;19;4885;-61
2023/12/16 12:26:52;;;;;;;;;;;22.80;48.40;;;;;;7390027;19;5350;-60
2023/12/16 12:29:17;;;;;;;;;;;22.70;48.30;;;;;;7388120;19;4921;-59
2023/12/16 12:31:43;;;;;;;;;;;22.70;48.30;;;;;;7383216;19;6639;-59
2023/12/16 12:34:16;;;;;;;;;;;22.70;48.20;;;;;;7387532;19;5271;-59
2023/12/16 12:36:41;;;;;;;;;;;22.70;48.10;;;;;;7387809;19;5453;-60
2023/12/16 12:39:07;;;;;;;;;;;22.80;48.10;;;;;;7390580;19;5470;-62
2023/12/16 12:41:32;;;;;;;;;;;22.80;48.00;;;;;;7382954;19;5409;-59
2023/12/16 12:43:58;;;;;;;;;;;22.70;47.90;;;;;;7393523;19;4635;-60
2023/12/16 12:46:23;;;;;;;;;;;22.80;48.10;;;;;;7392753;19;5929;-61
2023/12/16 12:48:55;;;;;;;;;;;22.80;47.90;;;;;;7389215;19;4508;-61
2023/12/16 12:51:20;;;;;;;;;;;22.80;47.80;;;;;;7389895;19;4395;-60
2023/12/16 12:53:54;;;;;;;;;;;22.80;47.80;;;;;;7390730;19;4160;-59
2023/12/16 12:56:19;;;;;;;;;;;22.90;47.70;;;;;;7389264;19;3702;-59
2023/12/16 12:58:44;;;;;;;;;;;22.90;47.70;;;;;;7384301;19;6877;-62
2023/12/16 13:01:10;;;;;;;;;;;23.00;47.50;;;;;;7388347;19;4156;-61
2023/12/16 13:03:35;;;;;;;;;;;23.00;47.60;;;;;;7388827;19;4044;-64
2023/12/16 13:06:02;;;;;;;;;;;23.10;47.60;;;;;;7389712;19;6380;-62
2023/12/16 13:08:27;;;;;;;;;;;23.10;47.40;;;;;;7387405;19;4879;-62
2023/12/16 13:10:53;;;;;;;;;;;23.10;47.40;;;;;;7393835;19;4043;-63
2023/12/16 13:13:19;;;;;;;;;;;23.00;47.80;;;;;;7394392;19;1850;-62
2023/12/16 13:15:45;;;;;;;;;;;22.90;48.00;;;;;;7394749;19;2973;-64
2023/12/16 13:18:11;;;;;;;;;;;23.00;48.10;;;;;;7391930;19;3136;-62
2023/12/16 13:20:38;;;;;;;;;;;23.00;48.10;;;;;;7395054;19;3011;-63
2023/12/16 13:23:03;;;;;;;;;;;23.10;48.00;;;;;;7392427;19;1745;-62
2023/12/16 13:25:28;;;;;;;;;;;23.00;47.80;;;;;;7386840;19;1700;-61
2023/12/16 13:27:54;;;;;;;;;;;23.00;47.90;;;;;;7394047;19;1555;-62
2023/12/16 13:30:19;;;;;;;;;;;23.00;48.20;;;;;;7396442;19;1794;-61
2023/12/16 13:32:45;;;;;;;;;;;23.00;48.10;;;;;;7398635;19;5803;-62
2023/12/16 13:35:10;;;;;;;;;;;23.00;48.00;;;;;;7397951;19;1830;-61
2023/12/16 13:37:36;;;;;;;;;;;23.10;48.10;;;;;;7400704;19;2647;-60
2023/12/16 13:40:07;;;;;;;;;;;23.10;48.10;;;;;;7401006;19;1592;-63
2023/12/16 13:42:33;;;;;;;;;;;23.10;48.00;;;;;;7399019;19;1598;-62
2023/12/16 13:44:58;;;;;;;;;;;23.20;47.90;;;;;;7400820;19;1809;-62
2023/12/16 13:47:23;;;;;;;;;;;23.20;47.90;;;;;;7400118;19;1882;-63
2023/12/16 13:49:49;;;;;;;;;;;23.10;47.90;;;;;;7398490;19;2534;-63
2023/12/16 13:52:15;;;;;;;;;;;23.10;48.20;;;;;;7399761;19;1612;-62
2023/12/16 13:54:40;;;;;;;;;;;23.20;48.20;;;;;;7396095;19;1902;-64
2023/12/16 13:57:06;;;;;;;;;;;23.10;48.10;;;;;;7399905;19;2290;-63
2023/12/16 13:59:32;;;;;;;;;;;23.10;48.10;;;;;;7397377;19;1625;-63
2023/12/16 14:01:58;;;;;;;;;;;23.00;48.40;;;;;;7399926;19;1578;-63
2023/12/16 14:04:23;;;;;;;;;;;22.90;48.60;;;;;;7401635;19;2066;-61
2023/12/16 14:06:49;;;;;;;;;;;23.00;48.80;;;;;;7400252;19;1630;-62
2023/12/16 14:09:14;;;;;;;;;;;23.00;48.70;;;;;;7398191;19;2127;-62
2023/12/16 14:11:40;;;;;;;;;;;23.00;48.80;;;;;;7399088;19;1928;-61
2023/12/16 14:14:06;;;;;;;;;;;23.10;48.90;;;;;;7397593;19;2943;-61
2023/12/16 14:16:31;;;;;;;;;;;23.10;48.70;;;;;;7399256;19;1720;-61
2023/12/16 14:18:57;;;;;;;;;;;23.20;48.50;;;;;;7396550;19;1941;-62
2023/12/16 14:21:24;;;;;;;;;;;23.20;48.40;;;;;;7399496;19;3506;-61
2023/12/16 14:23:49;;;;;;;;;;;23.20;48.70;;;;;;7400159;19;1681;-62